sensor_id;sensor_type;location;lat;lon;timestamp;pressure;altitude;pressure_sealevel;temperature;humidity
24825;BME280;12910;57.690;11.974;2022-10-13T00:00:16;101051.63;;;10.93;100.00
24825;BME280;12910;57.690;11.974;2022-10-13T00:02:41;101055.91;;;10.92;100.00
24825;BME280;12910;57.690;11.974;2022-10-13T00:05:07;101051.56;;;10.89;100.00
24825;BME280;12910;57.690;11.974;2022-10-13T00:07:32;101052.41;;;10.88;100.00
24825;BME280;12910;57.690;11.974;2022-10-13T00:09:58;101054.91;;;10.87;100.00
24825;BME280;12910;57.690;11.974;2022-10-13T00:12:23;101044.63;;;10.84;100.00
24825;BME280;12910;57.690;11.974;2022-10-13T00:14:49;101056.63;;;10.86;100.00
24825;BME280;12910;57.690;11.974;2022-10-13T00:17:14;101056.59;;;10.85;100.00
24825;BME280;12910;57.690;11.974;2022-10-13T00:19:39;101045.47;;;10.84;100.00
24825;BME280;12910;57.690;11.974;2022-10-13T00:22:05;101049.75;;;10.84;100.00
24825;BME280;12910;57.690;11.974;2022-10-13T00:24:30;101043.72;;;10.83;100.00
24825;BME280;12910;57.690;11.974;2022-10-13T00:26:55;101040.28;;;10.81;100.00
24825;BME280;12910;57.690;11.974;2022-10-13T00:29:21;101044.53;;;10.81;100.00
24825;BME280;12910;57.690;11.974;2022-10-13T00:31:46;101040.34;;;10.84;100.00
24825;BME280;12910;57.690;11.974;2022-10-13T00:34:12;101045.53;;;10.86;100.00
24825;BME280;12910;57.690;11.974;2022-10-13T00:36:37;101048.94;;;10.86;100.00
24825;BME280;12910;57.690;11.974;2022-10-13T00:39:02;101044.63;;;10.84;100.00
24825;BME280;12910;57.690;11.974;2022-10-13T00:41:28;101042.97;;;10.86;100.00
24825;BME280;12910;57.690;11.974;2022-10-13T00:44:02;101042.16;;;10.90;100.00
24825;BME280;12910;57.690;11.974;2022-10-13T00:46:36;101041.31;;;10.89;100.00
24825;BME280;12910;57.690;11.974;2022-10-13T00:49:08;101043.94;;;10.93;100.00
24825;BME280;12910;57.690;11.974;2022-10-13T00:51:42;101031.09;;;10.93;100.00
24825;BME280;12910;57.690;11.974;2022-10-13T00:54:10;101028.63;;;10.96;100.00
24825;BME280;12910;57.690;11.974;2022-10-13T00:56:38;101035.47;;;10.97;100.00
24825;BME280;12910;57.690;11.974;2022-10-13T00:59:08;101036.38;;;10.99;100.00
24825;BME280;12910;57.690;11.974;2022-10-13T01:01:37;101033.75;;;10.97;100.00
24825;BME280;12910;57.690;11.974;2022-10-13T01:04:02;101032.00;;;10.95;100.00
24825;BME280;12910;57.690;11.974;2022-10-13T01:06:28;101036.31;;;10.96;100.00
24825;BME280;12910;57.690;11.974;2022-10-13T01:08:54;101038.88;;;10.96;100.00
24825;BME280;12910;57.690;11.974;2022-10-13T01:11:32;101042.34;;;10.98;100.00
24825;BME280;12910;57.690;11.974;2022-10-13T01:14:07;101054.34;;;10.99;100.00
24825;BME280;12910;57.690;11.974;2022-10-13T01:24:46;101037.28;;;11.01;100.00
24825;BME280;12910;57.690;11.974;2022-10-13T01:29:57;101034.66;;;10.98;100.00
24825;BME280;12910;57.690;11.974;2022-10-13T01:32:35;101031.19;;;10.96;100.00
24825;BME280;12910;57.690;11.974;2022-10-13T01:37:45;101025.97;;;10.93;100.00
24825;BME280;12910;57.690;11.974;2022-10-13T01:43:00;101026.84;;;10.91;100.00
24825;BME280;12910;57.690;11.974;2022-10-13T01:45:38;101018.25;;;10.89;100.00
24825;BME280;12910;57.690;11.974;2022-10-13T01:48:06;101022.53;;;10.90;100.00
24825;BME280;12910;57.690;11.974;2022-10-13T01:50:33;101020.81;;;10.91;100.00
24825;BME280;12910;57.690;11.974;2022-10-13T01:53:03;101019.19;;;10.95;100.00
24825;BME280;12910;57.690;11.974;2022-10-13T01:55:29;101018.34;;;10.96;100.00
24825;BME280;12910;57.690;11.974;2022-10-13T01:57:55;101010.53;;;10.89;100.00
24825;BME280;12910;57.690;11.974;2022-10-13T02:00:21;101016.69;;;10.98;100.00
24825;BME280;12910;57.690;11.974;2022-10-13T02:03:09;101020.09;;;10.97;100.00
24825;BME280;12910;57.690;11.974;2022-10-13T02:05:50;101004.63;;;10.94;100.00
24825;BME280;12910;57.690;11.974;2022-10-13T02:08:24;101015.78;;;10.94;100.00
24825;BME280;12910;57.690;11.974;2022-10-13T02:13:40;101007.16;;;10.92;100.00
24825;BME280;12910;57.690;11.974;2022-10-13T02:16:08;101000.22;;;10.88;100.00
24825;BME280;12910;57.690;11.974;2022-10-13T02:18:35;101003.75;;;10.91;100.00
24825;BME280;12910;57.690;11.974;2022-10-13T02:21:02;101003.63;;;10.87;100.00
24825;BME280;12910;57.690;11.974;2022-10-13T02:23:28;100996.69;;;10.81;100.00
24825;BME280;12910;57.690;11.974;2022-10-13T02:25:56;101000.97;;;10.82;100.00
24825;BME280;12910;57.690;11.974;2022-10-13T02:28:23;101014.69;;;10.84;100.00
24825;BME280;12910;57.690;11.974;2022-10-13T02:30:49;101013.78;;;10.82;100.00
24825;BME280;12910;57.690;11.974;2022-10-13T02:33:14;101000.94;;;10.81;100.00
24825;BME280;12910;57.690;11.974;2022-10-13T02:35:41;101005.16;;;10.79;100.00
24825;BME280;12910;57.690;11.974;2022-10-13T02:38:07;101006.97;;;10.83;100.00
24825;BME280;12910;57.690;11.974;2022-10-13T02:40:32;101012.97;;;10.83;100.00
24825;BME280;12910;57.690;11.974;2022-10-13T02:42:58;101005.34;;;10.86;100.00
24825;BME280;12910;57.690;11.974;2022-10-13T02:45:23;101009.56;;;10.84;100.00
24825;BME280;12910;57.690;11.974;2022-10-13T02:47:49;101001.84;;;10.83;100.00
24825;BME280;12910;57.690;11.974;2022-10-13T02:50:15;101002.75;;;10.85;100.00
24825;BME280;12910;57.690;11.974;2022-10-13T02:52:40;100998.50;;;10.87;100.00
24825;BME280;12910;57.690;11.974;2022-10-13T02:55:06;101005.34;;;10.88;100.00
24825;BME280;12910;57.690;11.974;2022-10-13T02:57:31;100997.66;;;10.86;100.00
24825;BME280;12910;57.690;11.974;2022-10-13T02:59:57;101004.59;;;10.90;100.00
24825;BME280;12910;57.690;11.974;2022-10-13T03:02:22;100990.72;;;10.82;100.00
24825;BME280;12910;57.690;11.974;2022-10-13T03:04:48;101012.28;;;10.90;100.00
24825;BME280;12910;57.690;11.974;2022-10-13T03:07:14;101001.13;;;10.90;100.00
24825;BME280;12910;57.690;11.974;2022-10-13T03:09:39;100995.16;;;10.89;100.00
24825;BME280;12910;57.690;11.974;2022-10-13T03:12:05;100984.00;;;10.87;100.00
24825;BME280;12910;57.690;11.974;2022-10-13T03:14:30;100992.63;;;10.93;100.00
24825;BME280;12910;57.690;11.974;2022-10-13T03:16:56;100984.91;;;10.89;100.00
24825;BME280;12910;57.690;11.974;2022-10-13T03:19:21;100984.91;;;10.91;100.00
24825;BME280;12910;57.690;11.974;2022-10-13T03:21:47;100978.13;;;10.93;100.00
24825;BME280;12910;57.690;11.974;2022-10-13T03:24:12;100957.44;;;10.85;100.00
24825;BME280;12910;57.690;11.974;2022-10-13T03:26:38;100976.41;;;10.92;100.00
24825;BME280;12910;57.690;11.974;2022-10-13T03:29:03;100966.13;;;10.90;100.00
24825;BME280;12910;57.690;11.974;2022-10-13T03:31:29;100965.31;;;10.93;100.00
24825;BME280;12910;57.690;11.974;2022-10-13T03:33:54;100967.88;;;10.93;100.00
24825;BME280;12910;57.690;11.974;2022-10-13T03:36:19;100957.59;;;10.91;100.00
24825;BME280;12910;57.690;11.974;2022-10-13T03:38:45;100961.00;;;10.90;100.00
24825;BME280;12910;57.690;11.974;2022-10-13T03:41:12;100959.28;;;10.93;100.00
24825;BME280;12910;57.690;11.974;2022-10-13T03:43:39;100951.50;;;10.88;100.00
24825;BME280;12910;57.690;11.974;2022-10-13T03:46:05;100953.34;;;10.94;100.00
24825;BME280;12910;57.690;11.974;2022-10-13T03:48:34;100950.78;;;10.94;100.00
24825;BME280;12910;57.690;11.974;2022-10-13T03:51:03;100944.69;;;10.88;100.00
24825;BME280;12910;57.690;11.974;2022-10-13T03:53:29;100940.47;;;10.90;100.00
24825;BME280;12910;57.690;11.974;2022-10-13T03:55:55;100940.41;;;10.89;100.00
24825;BME280;12910;57.690;11.974;2022-10-13T03:58:21;100942.09;;;10.87;100.00
24825;BME280;12910;57.690;11.974;2022-10-13T04:00:48;100938.66;;;10.86;100.00
24825;BME280;12910;57.690;11.974;2022-10-13T04:03:15;100942.06;;;10.85;100.00
24825;BME280;12910;57.690;11.974;2022-10-13T04:05:41;100931.78;;;10.84;100.00
24825;BME280;12910;57.690;11.974;2022-10-13T04:08:06;100930.03;;;10.81;100.00
24825;BME280;12910;57.690;11.974;2022-10-13T04:10:32;100925.75;;;10.82;100.00
24825;BME280;12910;57.690;11.974;2022-10-13T04:12:57;100926.59;;;10.81;100.00
24825;BME280;12910;57.690;11.974;2022-10-13T04:15:24;100918.88;;;10.79;100.00
24825;BME280;12910;57.690;11.974;2022-10-13T04:17:49;100908.47;;;10.73;100.00
24825;BME280;12910;57.690;11.974;2022-10-13T04:20:15;100909.28;;;10.70;100.00
24825;BME280;12910;57.690;11.974;2022-10-13T04:22:40;100909.34;;;10.72;100.00
24825;BME280;12910;57.690;11.974;2022-10-13T04:25:06;100908.47;;;10.73;100.00
24825;BME280;12910;57.690;11.974;2022-10-13T04:27:32;100908.44;;;10.70;100.00
24825;BME280;12910;57.690;11.974;2022-10-13T04:29:57;100904.22;;;10.72;100.00
24825;BME280;12910;57.690;11.974;2022-10-13T04:32:23;100903.31;;;10.70;100.00
24825;BME280;12910;57.690;11.974;2022-10-13T04:34:48;100902.41;;;10.69;100.00
24825;BME280;12910;57.690;11.974;2022-10-13T04:37:14;100902.38;;;10.66;100.00
24825;BME280;12910;57.690;11.974;2022-10-13T04:39:39;100903.22;;;10.67;100.00
24825;BME280;12910;57.690;11.974;2022-10-13T04:42:04;100906.69;;;10.69;100.00
24825;BME280;12910;57.690;11.974;2022-10-13T04:44:30;100895.44;;;10.62;100.00
24825;BME280;12910;57.690;11.974;2022-10-13T04:46:56;100897.19;;;10.65;100.00
24825;BME280;12910;57.690;11.974;2022-10-13T04:49:22;100886.84;;;10.60;100.00
24825;BME280;12910;57.690;11.974;2022-10-13T04:51:48;100893.72;;;10.61;100.00
24825;BME280;12910;57.690;11.974;2022-10-13T04:54:13;100895.44;;;10.62;100.00
24825;BME280;12910;57.690;11.974;2022-10-13T04:56:39;100884.28;;;10.58;100.00
24825;BME280;12910;57.690;11.974;2022-10-13T04:59:04;100896.28;;;10.61;100.00
24825;BME280;12910;57.690;11.974;2022-10-13T05:01:30;100889.41;;;10.58;100.00
24825;BME280;12910;57.690;11.974;2022-10-13T05:03:58;100891.13;;;10.59;100.00
24825;BME280;12910;57.690;11.974;2022-10-13T05:06:26;100900.50;;;10.59;100.00
24825;BME280;12910;57.690;11.974;2022-10-13T05:08:51;100903.88;;;10.56;100.00
24825;BME280;12910;57.690;11.974;2022-10-13T05:11:17;100889.31;;;10.54;100.00
24825;BME280;12910;57.690;11.974;2022-10-13T05:13:45;100891.78;;;10.49;100.00
24825;BME280;12910;57.690;11.974;2022-10-13T05:16:12;100899.63;;;10.57;100.00
24825;BME280;12910;57.690;11.974;2022-10-13T05:18:38;100903.13;;;10.60;100.00
24825;BME280;12910;57.690;11.974;2022-10-13T05:21:08;100904.84;;;10.62;100.00
24825;BME280;12910;57.690;11.974;2022-10-13T05:23:34;100899.72;;;10.62;100.00
24825;BME280;12910;57.690;11.974;2022-10-13T05:26:02;100908.34;;;10.67;100.00
24825;BME280;12910;57.690;11.974;2022-10-13T05:28:28;100888.66;;;10.63;100.00
24825;BME280;12910;57.690;11.974;2022-10-13T05:30:53;100897.19;;;10.65;100.00
24825;BME280;12910;57.690;11.974;2022-10-13T05:33:19;100879.06;;;10.55;100.00
24825;BME280;12910;57.690;11.974;2022-10-13T05:35:44;100899.00;;;10.67;100.00
24825;BME280;12910;57.690;11.974;2022-10-13T05:38:09;100887.75;;;10.62;100.00
24825;BME280;12910;57.690;11.974;2022-10-13T05:40:35;100895.44;;;10.62;100.00
24825;BME280;12910;57.690;11.974;2022-10-13T05:43:00;100880.88;;;10.59;100.00
24825;BME280;12910;57.690;11.974;2022-10-13T05:45:28;100878.38;;;10.63;100.00
24825;BME280;12910;57.690;11.974;2022-10-13T05:47:56;100873.22;;;10.61;100.00
24825;BME280;12910;57.690;11.974;2022-10-13T05:50:21;100874.13;;;10.65;100.00
24825;BME280;12910;57.690;11.974;2022-10-13T05:52:47;100859.53;;;10.60;100.00
24825;BME280;12910;57.690;11.974;2022-10-13T05:55:14;100861.38;;;10.66;100.00
24825;BME280;12910;57.690;11.974;2022-10-13T05:57:43;100863.13;;;10.69;100.00
24825;BME280;12910;57.690;11.974;2022-10-13T06:00:13;100845.06;;;10.63;100.00
24825;BME280;12910;57.690;11.974;2022-10-13T06:03:03;100863.97;;;10.69;100.00
24825;BME280;12910;57.690;11.974;2022-10-13T06:05:31;100843.38;;;10.65;100.00
24825;BME280;12910;57.690;11.974;2022-10-13T06:07:57;100852.03;;;10.70;100.00
24825;BME280;12910;57.690;11.974;2022-10-13T06:10:23;100845.94;;;10.65;100.00
24825;BME280;12910;57.690;11.974;2022-10-13T06:12:49;100831.34;;;10.60;100.00
24825;BME280;12910;57.690;11.974;2022-10-13T06:15:14;100837.47;;;10.67;100.00
24825;BME280;12910;57.690;11.974;2022-10-13T06:17:40;100834.00;;;10.65;100.00
24825;BME280;12910;57.690;11.974;2022-10-13T06:20:06;100841.78;;;10.70;100.00
24825;BME280;12910;57.690;11.974;2022-10-13T06:22:33;100834.91;;;10.69;100.00
24825;BME280;12910;57.690;11.974;2022-10-13T06:24:59;100840.03;;;10.69;100.00
24825;BME280;12910;57.690;11.974;2022-10-13T06:27:25;100831.38;;;10.62;100.00
24825;BME280;12910;57.690;11.974;2022-10-13T06:29:50;100836.59;;;10.67;100.00
24825;BME280;12910;57.690;11.974;2022-10-13T06:32:16;100841.78;;;10.70;100.00
24825;BME280;12910;57.690;11.974;2022-10-13T06:34:41;100836.59;;;10.67;100.00
24825;BME280;12910;57.690;11.974;2022-10-13T06:37:07;100838.41;;;10.74;100.00
24825;BME280;12910;57.690;11.974;2022-10-13T06:39:33;100837.50;;;10.70;100.00
24825;BME280;12910;57.690;11.974;2022-10-13T06:41:58;100837.56;;;10.73;100.00
24825;BME280;12910;57.690;11.974;2022-10-13T06:44:23;100845.25;;;10.73;100.00
24825;BME280;12910;57.690;11.974;2022-10-13T06:46:49;100840.16;;;10.75;100.00
24825;BME280;12910;57.690;11.974;2022-10-13T06:49:14;100837.63;;;10.77;100.00
24825;BME280;12910;57.690;11.974;2022-10-13T06:51:40;100819.53;;;10.69;100.00
24825;BME280;12910;57.690;11.974;2022-10-13T06:54:05;100824.72;;;10.72;100.00
24825;BME280;12910;57.690;11.974;2022-10-13T06:56:30;100825.59;;;10.74;100.00
24825;BME280;12910;57.690;11.974;2022-10-13T06:58:56;100823.03;;;10.74;100.00
24825;BME280;12910;57.690;11.974;2022-10-13T07:01:21;100829.97;;;10.78;100.00
24825;BME280;12910;57.690;11.974;2022-10-13T07:03:48;100828.31;;;10.80;100.00
24825;BME280;12910;57.690;11.974;2022-10-13T07:06:14;100825.75;;;10.82;100.00
24825;BME280;12910;57.690;11.974;2022-10-13T07:08:39;100818.88;;;10.81;100.00
24825;BME280;12910;57.690;11.974;2022-10-13T07:11:09;100815.41;;;10.77;100.00
24825;BME280;12910;57.690;11.974;2022-10-13T07:13:37;100826.66;;;10.84;100.00
24825;BME280;12910;57.690;11.974;2022-10-13T07:16:03;100816.44;;;10.87;100.00
24825;BME280;12910;57.690;11.974;2022-10-13T07:18:29;100813.84;;;10.85;100.00
24825;BME280;12910;57.690;11.974;2022-10-13T07:20:56;100815.56;;;10.86;100.00
24825;BME280;12910;57.690;11.974;2022-10-13T07:23:22;100812.94;;;10.83;100.00
24825;BME280;12910;57.690;11.974;2022-10-13T07:25:47;100818.22;;;10.91;100.00
24825;BME280;12910;57.690;11.974;2022-10-13T07:28:13;100812.19;;;10.87;100.00
24825;BME280;12910;57.690;11.974;2022-10-13T07:30:38;100815.66;;;10.91;100.00
24825;BME280;12910;57.690;11.974;2022-10-13T07:33:05;100811.41;;;10.91;100.00
24825;BME280;12910;57.690;11.974;2022-10-13T07:35:30;100804.50;;;10.89;100.00
24825;BME280;12910;57.690;11.974;2022-10-13T07:37:56;100801.19;;;10.95;100.00
24825;BME280;12910;57.690;11.974;2022-10-13T07:40:21;100799.50;;;10.95;100.00
24825;BME280;12910;57.690;11.974;2022-10-13T07:42:47;100804.59;;;10.94;100.00
24825;BME280;12910;57.690;11.974;2022-10-13T07:45:12;100806.31;;;10.95;100.00
24825;BME280;12910;57.690;11.974;2022-10-13T07:47:38;100798.66;;;10.96;100.00
24825;BME280;12910;57.690;11.974;2022-10-13T07:50:03;100803.00;;;11.00;100.00
24825;BME280;12910;57.690;11.974;2022-10-13T07:52:29;100789.31;;;11.00;100.00
24825;BME280;12910;57.690;11.974;2022-10-13T07:54:54;100791.06;;;11.01;100.00
24825;BME280;12910;57.690;11.974;2022-10-13T07:57:20;100792.84;;;11.06;100.00
24825;BME280;12910;57.690;11.974;2022-10-13T07:59:46;100789.44;;;11.07;100.00
24825;BME280;12910;57.690;11.974;2022-10-13T08:02:12;100779.22;;;11.09;100.00
24825;BME280;12910;57.690;11.974;2022-10-13T08:04:37;100786.16;;;11.16;100.00
24825;BME280;12910;57.690;11.974;2022-10-13T08:07:04;100784.44;;;11.17;100.00
24825;BME280;12910;57.690;11.974;2022-10-13T08:09:31;100786.25;;;11.21;100.00
24825;BME280;12910;57.690;11.974;2022-10-13T08:11:57;100777.72;;;11.23;100.00
24825;BME280;12910;57.690;11.974;2022-10-13T08:14:22;100776.88;;;11.23;100.00
24825;BME280;12910;57.690;11.974;2022-10-13T08:16:48;100782.97;;;11.30;100.00
24825;BME280;12910;57.690;11.974;2022-10-13T08:19:15;100752.84;;;11.18;100.00
24825;BME280;12910;57.690;11.974;2022-10-13T08:21:42;100773.63;;;11.35;100.00
24825;BME280;12910;57.690;11.974;2022-10-13T08:24:13;100777.06;;;11.35;100.00
24825;BME280;12910;57.690;11.974;2022-10-13T08:26:39;100771.16;;;11.41;100.00
24825;BME280;12910;57.690;11.974;2022-10-13T08:29:05;100766.84;;;11.40;100.00
24825;BME280;12910;57.690;11.974;2022-10-13T08:31:31;100748.88;;;11.37;100.00
24825;BME280;12910;57.690;11.974;2022-10-13T08:33:57;100754.88;;;11.39;100.00
24825;BME280;12910;57.690;11.974;2022-10-13T08:36:22;100750.66;;;11.44;100.00
24825;BME280;12910;57.690;11.974;2022-10-13T08:38:49;100746.38;;;11.42;100.00
24825;BME280;12910;57.690;11.974;2022-10-13T08:41:23;100747.22;;;11.42;100.00
24825;BME280;12910;57.690;11.974;2022-10-13T08:43:51;100738.69;;;11.43;100.00
24825;BME280;12910;57.690;11.974;2022-10-13T08:46:24;100732.66;;;11.41;100.00
24825;BME280;12910;57.690;11.974;2022-10-13T08:48:50;100744.81;;;11.53;100.00
24825;BME280;12910;57.690;11.974;2022-10-13T08:51:15;100737.97;;;11.53;100.00
24825;BME280;12910;57.690;11.974;2022-10-13T08:53:43;100742.34;;;11.61;100.00
24825;BME280;12910;57.690;11.974;2022-10-13T08:56:14;100736.38;;;11.62;100.00
24825;BME280;12910;57.690;11.974;2022-10-13T08:58:42;100738.03;;;11.58;100.00
24825;BME280;12910;57.690;11.974;2022-10-13T09:06:31;100716.66;;;11.59;100.00
24825;BME280;12910;57.690;11.974;2022-10-13T09:09:07;100719.28;;;11.64;100.00
24825;BME280;12910;57.690;11.974;2022-10-13T09:11:36;100719.41;;;11.72;100.00
24825;BME280;12910;57.690;11.974;2022-10-13T09:14:04;100713.38;;;11.71;100.00
24825;BME280;12910;57.690;11.974;2022-10-13T09:16:39;100715.06;;;11.69;100.00
24825;BME280;12910;57.690;11.974;2022-10-13T09:19:28;100710.03;;;11.75;100.00
24825;BME280;12910;57.690;11.974;2022-10-13T09:21:57;100715.16;;;11.75;100.00
24825;BME280;12910;57.690;11.974;2022-10-13T09:24:25;100709.13;;;11.72;100.00
24825;BME280;12910;57.690;11.974;2022-10-13T09:27:03;100712.66;;;11.80;100.00
24825;BME280;12910;57.690;11.974;2022-10-13T09:29:30;100707.56;;;11.86;100.00
24825;BME280;12910;57.690;11.974;2022-10-13T09:32:25;100686.19;;;11.89;100.00
24825;BME280;12910;57.690;11.974;2022-10-13T09:34:53;100669.94;;;11.90;100.00
24825;BME280;12910;57.690;11.974;2022-10-13T09:37:24;100655.44;;;11.92;100.00
24825;BME280;12910;57.690;11.974;2022-10-13T09:40:19;100654.66;;;11.97;100.00
24825;BME280;12910;57.690;11.974;2022-10-13T09:42:52;100658.16;;;12.04;100.00
24825;BME280;12910;57.690;11.974;2022-10-13T09:45:19;100641.81;;;11.99;100.00
24825;BME280;12910;57.690;11.974;2022-10-13T09:48:05;100638.50;;;12.06;100.00
24825;BME280;12910;57.690;11.974;2022-10-13T09:50:33;100639.38;;;12.10;100.00
24825;BME280;12910;57.690;11.974;2022-10-13T09:53:36;100646.22;;;12.08;100.00
24825;BME280;12910;57.690;11.974;2022-10-13T09:58:52;100645.34;;;12.07;100.00
24825;BME280;12910;57.690;11.974;2022-10-13T10:01:28;100648.81;;;12.12;100.00
24825;BME280;12910;57.690;11.974;2022-10-13T10:03:55;100636.78;;;12.08;100.00
24825;BME280;12910;57.690;11.974;2022-10-13T10:06:22;100636.81;;;12.10;100.00
24825;BME280;12910;57.690;11.974;2022-10-13T10:09:00;100645.34;;;12.07;100.00
24825;BME280;12910;57.690;11.974;2022-10-13T10:11:33;100646.25;;;12.12;100.00
24825;BME280;12910;57.690;11.974;2022-10-13T10:14:27;100645.41;;;12.13;100.00
24825;BME280;12910;57.690;11.974;2022-10-13T10:19:38;100636.81;;;12.11;100.00
24825;BME280;12910;57.690;11.974;2022-10-13T10:25:06;100642.00;;;12.18;100.00
24825;BME280;12910;57.690;11.974;2022-10-13T10:27:38;100632.53;;;12.09;100.00
24825;BME280;12910;57.690;11.974;2022-10-13T10:30:12;100632.63;;;12.20;100.00
24825;BME280;12910;57.690;11.974;2022-10-13T10:35:56;100640.38;;;12.23;100.00
24825;BME280;12910;57.690;11.974;2022-10-13T10:44:07;100614.78;;;12.38;100.00
24825;BME280;12910;57.690;11.974;2022-10-13T10:46:39;100615.72;;;12.43;100.00
24825;BME280;12910;57.690;11.974;2022-10-13T10:49:30;100620.88;;;12.48;100.00
24825;BME280;12910;57.690;11.974;2022-10-13T10:51:58;100620.06;;;12.52;100.00
24825;BME280;12910;57.690;11.974;2022-10-13T10:54:39;100614.88;;;12.47;100.00
24825;BME280;12910;57.690;11.974;2022-10-13T10:57:22;100608.91;;;12.52;100.00
24825;BME280;12910;57.690;11.974;2022-10-13T11:00:24;100608.91;;;12.53;100.00
24825;BME280;12910;57.690;11.974;2022-10-13T11:03:02;100600.28;;;12.45;100.00
24825;BME280;12910;57.690;11.974;2022-10-13T11:06:04;100603.72;;;12.42;100.00
24825;BME280;12910;57.690;11.974;2022-10-13T11:08:41;100599.41;;;12.41;100.00
24825;BME280;12910;57.690;11.974;2022-10-13T11:16:27;100601.97;;;12.40;100.00
24825;BME280;12910;57.690;11.974;2022-10-13T11:21:19;100608.00;;;12.43;100.00
24825;BME280;12910;57.690;11.974;2022-10-13T11:23:47;100596.84;;;12.41;100.00
24825;BME280;12910;57.690;11.974;2022-10-13T11:28:50;100587.38;;;12.37;100.00
24825;BME280;12910;57.690;11.974;2022-10-13T11:37:14;100595.13;;;12.40;100.00
24825;BME280;12910;57.690;11.974;2022-10-13T11:44:54;100596.00;;;12.42;100.00
24825;BME280;12910;57.690;11.974;2022-10-13T11:47:47;100590.88;;;12.45;100.00
24825;BME280;12910;57.690;11.974;2022-10-13T11:50:41;100590.88;;;12.49;100.00
24825;BME280;12910;57.690;11.974;2022-10-13T11:55:55;100577.16;;;12.43;100.00
24825;BME280;12910;57.690;11.974;2022-10-13T11:58:23;100575.47;;;12.49;100.00
24825;BME280;12910;57.690;11.974;2022-10-13T12:03:21;100566.81;;;12.34;100.00
24825;BME280;12910;57.690;11.974;2022-10-13T12:05:48;100567.66;;;12.35;100.00
24825;BME280;12910;57.690;11.974;2022-10-13T12:08:14;100550.44;;;12.24;100.00
24825;BME280;12910;57.690;11.974;2022-10-13T12:10:40;100561.63;;;12.31;100.00
24825;BME280;12910;57.690;11.974;2022-10-13T12:13:06;100553.09;;;12.35;100.00
24825;BME280;12910;57.690;11.974;2022-10-13T12:15:36;100554.84;;;12.39;100.00
24825;BME280;12910;57.690;11.974;2022-10-13T12:18:23;100549.66;;;12.33;100.00
24825;BME280;12910;57.690;11.974;2022-10-13T12:20:57;100550.53;;;12.37;100.00
24825;BME280;12910;57.690;11.974;2022-10-13T12:23:24;100541.91;;;12.30;100.00
24825;BME280;12910;57.690;11.974;2022-10-13T12:25:51;100544.59;;;12.42;100.00
24825;BME280;12910;57.690;11.974;2022-10-13T12:28:23;100532.53;;;12.38;100.00
24825;BME280;12910;57.690;11.974;2022-10-13T12:30:55;100537.69;;;12.38;100.00
24825;BME280;12910;57.690;11.974;2022-10-13T12:33:30;100517.09;;;12.30;100.00
24825;BME280;12910;57.690;11.974;2022-10-13T12:36:15;100529.13;;;12.41;100.00
24825;BME280;12910;57.690;11.974;2022-10-13T12:38:49;100529.16;;;12.44;100.00
24825;BME280;12910;57.690;11.974;2022-10-13T12:41:19;100530.88;;;12.43;100.00
24825;BME280;12910;57.690;11.974;2022-10-13T12:43:47;100514.56;;;12.35;100.00
24825;BME280;12910;57.690;11.974;2022-10-13T12:46:37;100528.34;;;12.48;100.00
24825;BME280;12910;57.690;11.974;2022-10-13T12:51:36;100511.25;;;12.58;100.00
24825;BME280;12910;57.690;11.974;2022-10-13T12:54:34;100506.97;;;12.54;100.00
24825;BME280;12910;57.690;11.974;2022-10-13T12:57:14;100513.81;;;12.58;100.00
24825;BME280;12910;57.690;11.974;2022-10-13T12:59:41;100496.69;;;12.55;100.00
24825;BME280;12910;57.690;11.974;2022-10-13T13:02:25;100511.31;;;12.67;100.00
24825;BME280;12910;57.690;11.974;2022-10-13T13:04:52;100508.72;;;12.67;100.00
24825;BME280;12910;57.690;11.974;2022-10-13T13:07:34;100502.72;;;12.65;100.00
24825;BME280;12910;57.690;11.974;2022-10-13T13:10:21;100506.22;;;12.73;100.00
24825;BME280;12910;57.690;11.974;2022-10-13T13:12:48;100501.06;;;12.75;100.00
24825;BME280;12910;57.690;11.974;2022-10-13T13:15:18;100504.53;;;12.83;100.00
24825;BME280;12910;57.690;11.974;2022-10-13T13:17:44;100486.56;;;12.88;100.00
24825;BME280;12910;57.690;11.974;2022-10-13T13:20:23;100484.84;;;12.90;100.00
24825;BME280;12910;57.690;11.974;2022-10-13T13:22:48;100474.53;;;12.81;100.00
24825;BME280;12910;57.690;11.974;2022-10-13T13:25:15;100483.13;;;12.83;100.00
24825;BME280;12910;57.690;11.974;2022-10-13T13:27:40;100489.97;;;12.82;100.00
24825;BME280;12910;57.690;11.974;2022-10-13T13:30:13;100489.97;;;12.82;100.00
24825;BME280;12910;57.690;11.974;2022-10-13T13:32:39;100491.66;;;12.80;100.00
24825;BME280;12910;57.690;11.974;2022-10-13T13:35:05;100477.94;;;12.73;100.00
24825;BME280;12910;57.690;11.974;2022-10-13T13:37:40;100489.94;;;12.76;100.00
24825;BME280;12910;57.690;11.974;2022-10-13T13:40:06;100489.91;;;12.74;100.00
24825;BME280;12910;57.690;11.974;2022-10-13T13:42:38;100487.34;;;12.73;100.00
24825;BME280;12910;57.690;11.974;2022-10-13T13:45:03;100484.75;;;12.68;100.00
24825;BME280;12910;57.690;11.974;2022-10-13T13:47:29;100483.91;;;12.69;100.00
24825;BME280;12910;57.690;11.974;2022-10-13T13:49:55;100496.75;;;12.69;100.00